Terminal Aerodrome Forecast
Issued by NWS

Home | Current Version | Previous Version | Text Only | Print | Product List | Glossary On
Versions: 1 2 3 4 5 6 7 8 9 10 11 12 13 14 15 16
000
FTAK31 PAJN 221100
TAFAPG
TAF
PAPG 221136Z 2212/2312 00000KT P6SM OVC100
     FM222000 06004KT P6SM SCT060 BKN100
     FM230300 05006KT P6SM VCSH BKN060 OVC100 PROB30 2303/2309 6SM
      -SHRA BKN035
     FM230900 00000KT 1SM BR BKN002 BKN010
      AMD LTD TO CLD VIS AND WIND TIL 221500=

USA.gov is the U.S. government's official web portal to all federal, state and local government web resources and services.